createdAt,value
2019-01-10T00:00:11.840Z,16.3
2019-01-10T00:00:52.458Z,16.41
2019-01-10T00:01:33.092Z,16.33
2019-01-10T00:02:13.692Z,16.35
2019-01-10T00:02:54.309Z,16.43
2019-01-10T00:03:34.961Z,16.38
2019-01-10T00:04:15.604Z,16.38
2019-01-10T00:04:56.200Z,16.38
2019-01-10T00:05:36.843Z,16.28
2019-01-10T00:06:17.462Z,16.38
2019-01-10T00:06:58.068Z,16.3
2019-01-10T00:07:38.684Z,16.38
2019-01-10T00:08:19.314Z,16.27
2019-01-10T00:08:59.934Z,16.3
2019-01-10T00:09:40.548Z,16.27
2019-01-10T00:10:21.173Z,16.27
2019-01-10T00:11:01.786Z,16.25
2019-01-10T00:11:42.416Z,16.24
2019-01-10T00:12:23.032Z,16.31
2019-01-10T00:13:03.638Z,16.27
2019-01-10T00:13:44.250Z,16.34
2019-01-10T00:14:24.894Z,16.31
2019-01-10T00:15:05.496Z,16.33
2019-01-10T00:15:46.130Z,16.3
2019-01-10T00:16:26.749Z,16.24
2019-01-10T00:17:07.402Z,16.23
2019-01-10T00:17:50.028Z,16.24
2019-01-10T00:18:28.648Z,16.28
2019-01-10T00:19:09.277Z,16.27
2019-01-10T00:19:49.921Z,16.38
2019-01-10T00:20:30.515Z,16.28
2019-01-10T00:21:11.265Z,16.27
2019-01-10T00:21:51.883Z,16.31
2019-01-10T00:22:32.496Z,16.33
2019-01-10T00:23:13.113Z,16.27
2019-01-10T00:23:53.718Z,16.34
2019-01-10T00:24:34.342Z,16.25
2019-01-10T00:25:14.935Z,16.3
2019-01-10T00:25:55.544Z,16.31
2019-01-10T00:26:36.151Z,16.23
2019-01-10T00:27:16.812Z,16.25
2019-01-10T00:27:57.442Z,16.23
2019-01-10T00:28:38.067Z,16.25
2019-01-10T00:29:18.782Z,16.33
2019-01-10T00:29:59.358Z,16.31
2019-01-10T00:30:39.964Z,16.24
2019-01-10T00:31:20.602Z,16.27
2019-01-10T00:32:01.212Z,16.25
2019-01-10T00:32:41.816Z,16.3
2019-01-10T00:33:22.485Z,16.31
2019-01-10T00:34:03.164Z,16.25
2019-01-10T00:34:43.857Z,16.24
2019-01-10T00:35:24.552Z,16.3
2019-01-10T00:36:05.181Z,16.33
2019-01-10T00:36:45.928Z,16.24
2019-01-10T00:37:26.596Z,16.28
2019-01-10T00:38:07.206Z,16.31
2019-01-10T00:38:47.836Z,16.25
2019-01-10T00:39:28.470Z,16.3
2019-01-10T00:40:09.089Z,16.27
2019-01-10T00:40:49.713Z,16.28
2019-01-10T00:41:30.374Z,16.28
2019-01-10T00:42:11.016Z,16.27
2019-01-10T00:42:51.654Z,16.28
2019-01-10T00:43:32.282Z,16.27
2019-01-10T00:44:12.854Z,16.27
2019-01-10T00:44:53.478Z,16.28
2019-01-10T00:45:34.096Z,16.21
2019-01-10T00:46:14.722Z,16.38
2019-01-10T00:46:55.334Z,16.27
2019-01-10T00:47:35.936Z,16.27
2019-01-10T00:48:16.640Z,16.31
2019-01-10T00:48:57.317Z,16.34
2019-01-10T00:49:37.935Z,16.3
2019-01-10T00:50:18.599Z,16.24
2019-01-10T00:50:59.246Z,16.34
2019-01-10T00:51:39.929Z,16.27
2019-01-10T00:52:20.614Z,16.28
2019-01-10T00:53:01.290Z,16.23
2019-01-10T00:53:41.916Z,16.34
2019-01-10T00:54:22.575Z,16.24
2019-01-10T00:55:03.292Z,16.25
2019-01-10T00:55:43.877Z,16.25
2019-01-10T00:56:24.498Z,16.25
2019-01-10T00:57:05.148Z,16.25
2019-01-10T00:57:45.868Z,16.24
2019-01-10T00:58:26.488Z,16.23
2019-01-10T00:59:07.206Z,16.34
2019-01-10T00:59:47.826Z,16.27
2019-01-10T01:00:28.462Z,16.25
2019-01-10T01:01:09.106Z,16.17
2019-01-10T01:01:49.743Z,16.27
2019-01-10T01:02:30.340Z,16.27
2019-01-10T01:03:10.946Z,16.25
2019-01-10T01:03:51.543Z,16.28
2019-01-10T01:04:32.152Z,16.27
2019-01-10T01:05:12.736Z,16.31
2019-01-10T01:05:53.359Z,16.31
2019-01-10T01:06:33.988Z,16.27
2019-01-10T01:07:14.598Z,16.28
2019-01-10T01:07:55.200Z,16.23
2019-01-10T01:08:35.870Z,16.28
2019-01-10T01:09:16.472Z,16.25
2019-01-10T01:09:57.097Z,16.24
2019-01-10T01:10:37.727Z,16.24
2019-01-10T01:11:18.385Z,16.33
2019-01-10T01:11:59.027Z,16.33
2019-01-10T01:12:39.636Z,16.27
2019-01-10T01:13:20.245Z,16.23
2019-01-10T01:14:00.862Z,16.31
2019-01-10T01:14:41.522Z,16.23
2019-01-10T01:15:22.210Z,16.14
2019-01-10T01:16:02.952Z,16.27
2019-01-10T01:16:43.586Z,16.31
2019-01-10T01:17:24.229Z,16.3
2019-01-10T01:18:04.848Z,16.24
2019-01-10T01:18:45.472Z,16.24
2019-01-10T01:19:26.084Z,16.31
2019-01-10T01:20:06.716Z,16.27
2019-01-10T01:20:47.372Z,16.21
2019-01-10T01:21:28.075Z,16.3
2019-01-10T01:22:08.690Z,16.23
2019-01-10T01:22:49.335Z,16.25
2019-01-10T01:23:29.958Z,16.25
2019-01-10T01:24:10.588Z,16.31
2019-01-10T01:24:51.216Z,16.23
2019-01-10T01:25:31.874Z,16.28
2019-01-10T01:26:12.508Z,16.28
2019-01-10T01:26:53.120Z,16.25
2019-01-10T01:27:33.803Z,16.24
2019-01-10T01:28:14.442Z,16.25
2019-01-10T01:28:55.090Z,16.23
2019-01-10T01:29:35.711Z,16.25
2019-01-10T01:30:16.334Z,16.31
2019-01-10T01:30:56.951Z,16.27
2019-01-10T01:31:37.552Z,16.25
2019-01-10T01:32:18.146Z,16.27
2019-01-10T01:32:58.744Z,16.25
2019-01-10T01:33:39.362Z,16.24
2019-01-10T01:34:19.953Z,16.25
2019-01-10T01:35:00.688Z,16.27
2019-01-10T01:35:41.466Z,16.24
2019-01-10T01:36:22.242Z,16.2
2019-01-10T01:37:03.023Z,16.31
2019-01-10T01:37:43.778Z,16.3
2019-01-10T01:38:24.580Z,16.31
2019-01-10T01:39:05.366Z,16.17
2019-01-10T01:39:46.112Z,16.25
2019-01-10T01:40:26.904Z,16.3
2019-01-10T01:41:07.664Z,16.27
2019-01-10T01:41:48.482Z,16.2
2019-01-10T01:42:29.243Z,16.27
2019-01-10T01:43:09.990Z,16.17
2019-01-10T01:43:50.749Z,16.15
2019-01-10T01:44:31.512Z,16.15
2019-01-10T01:45:12.279Z,16.27
2019-01-10T01:45:53.094Z,16.2
2019-01-10T01:46:33.847Z,16.15
2019-01-10T01:47:14.600Z,16.17
2019-01-10T01:47:55.432Z,16.2
2019-01-10T01:48:36.194Z,16.28
2019-01-10T01:49:17.012Z,16.17
2019-01-10T01:49:57.786Z,16.2
2019-01-10T01:50:38.551Z,16.2
2019-01-10T01:51:19.309Z,16.2
2019-01-10T01:52:00.062Z,16.24
2019-01-10T01:52:40.841Z,16.27
2019-01-10T01:53:21.593Z,16.17
2019-01-10T01:54:02.353Z,16.15
2019-01-10T01:54:43.108Z,16.28
2019-01-10T01:55:23.857Z,16.15
2019-01-10T01:56:04.620Z,16.17
2019-01-10T01:56:45.370Z,16.15
2019-01-10T01:57:26.166Z,16.2
2019-01-10T01:58:06.918Z,16.23
2019-01-10T01:58:47.724Z,16.15
2019-01-10T01:59:28.470Z,16.14
2019-01-10T02:00:09.215Z,16.23
2019-01-10T02:00:49.970Z,16.23
2019-01-10T02:01:30.631Z,16.25
2019-01-10T02:02:11.336Z,16.2
2019-01-10T02:02:51.941Z,16.2
2019-01-10T02:03:32.554Z,16.15
2019-01-10T02:04:13.176Z,16.2
2019-01-10T02:04:53.798Z,16.28
2019-01-10T02:05:34.412Z,16.14
2019-01-10T02:06:15.001Z,16.17
2019-01-10T02:06:55.643Z,16.23
2019-01-10T02:07:36.303Z,16.15
2019-01-10T02:08:16.937Z,16.27
2019-01-10T02:08:57.852Z,16.15
2019-01-10T02:09:38.156Z,16.17
2019-01-10T02:10:18.755Z,16.21
2019-01-10T02:10:59.363Z,16.21
2019-01-10T02:11:39.981Z,16.17
2019-01-10T02:12:20.608Z,16.2
2019-01-10T02:13:01.232Z,16.17
2019-01-10T02:13:41.854Z,16.17
2019-01-10T02:14:22.469Z,16.23
2019-01-10T02:15:03.085Z,16.17
2019-01-10T02:15:43.697Z,16.21
2019-01-10T02:16:24.339Z,16.2
2019-01-10T02:17:04.966Z,16.21
2019-01-10T02:17:48.947Z,16.2
2019-01-10T02:18:26.215Z,16.15
2019-01-10T02:19:06.837Z,16.21
2019-01-10T02:19:47.452Z,16.2
2019-01-10T02:20:28.049Z,16.2
2019-01-10T02:21:08.650Z,16.15
2019-01-10T02:21:49.268Z,16.15
2019-01-10T02:22:29.873Z,16.14
2019-01-10T02:23:10.476Z,16.12
2019-01-10T02:23:51.145Z,16.15
2019-01-10T02:24:31.701Z,16.2
2019-01-10T02:25:12.353Z,16.14
2019-01-10T02:25:52.966Z,16.15
2019-01-10T02:26:33.558Z,16.15
2019-01-10T02:27:14.173Z,16.23
2019-01-10T02:27:54.775Z,16.11
2019-01-10T02:28:35.383Z,16.15
2019-01-10T02:29:15.997Z,16.14
2019-01-10T02:29:56.629Z,16.2
2019-01-10T02:30:41.926Z,16.2
2019-01-10T02:31:17.847Z,16.12
2019-01-10T02:31:58.440Z,16.17
2019-01-10T02:32:39.039Z,16.15
2019-01-10T02:33:19.681Z,16.14
2019-01-10T02:34:00.287Z,16.15
2019-01-10T02:34:40.892Z,16.15
2019-01-10T02:35:21.499Z,16.17
2019-01-10T02:36:02.113Z,16.21
2019-01-10T02:36:42.731Z,16.2
2019-01-10T02:37:23.373Z,16.15
2019-01-10T02:38:03.975Z,16.21
2019-01-10T02:38:44.593Z,16.17
2019-01-10T02:39:25.209Z,16.17
2019-01-10T02:40:05.805Z,16.2
2019-01-10T02:40:46.440Z,16.08
2019-01-10T02:41:27.058Z,16.14
2019-01-10T02:42:07.663Z,16.2
2019-01-10T02:42:48.285Z,16.21
2019-01-10T02:43:28.907Z,16.14
2019-01-10T02:44:09.526Z,16.2
2019-01-10T02:44:50.145Z,16.24
2019-01-10T02:45:30.784Z,16.17
2019-01-10T02:46:11.384Z,16.14
2019-01-10T02:46:52.002Z,16.15
2019-01-10T02:47:32.612Z,16.21
2019-01-10T02:48:13.213Z,16.2
2019-01-10T02:48:53.815Z,16.15
2019-01-10T02:49:34.455Z,16.12
2019-01-10T02:50:15.062Z,16.14
2019-01-10T02:50:55.677Z,16.14
2019-01-10T02:51:36.271Z,16.11
2019-01-10T02:52:16.897Z,16.17
2019-01-10T02:52:57.517Z,16.12
2019-01-10T02:53:38.121Z,16.08
2019-01-10T02:54:18.717Z,16.17
2019-01-10T02:54:59.325Z,16.2
2019-01-10T02:55:39.959Z,16.07
2019-01-10T02:56:20.599Z,16.21
2019-01-10T02:57:01.229Z,16.15
2019-01-10T02:57:41.858Z,16.14
2019-01-10T02:58:22.435Z,16.15
2019-01-10T02:59:03.044Z,16.15
2019-01-10T02:59:43.645Z,16.2
2019-01-10T03:00:24.237Z,16.15
2019-01-10T03:01:04.833Z,16.17
2019-01-10T03:01:45.450Z,16.07
2019-01-10T03:02:26.109Z,16.11
2019-01-10T03:03:06.862Z,16.11
2019-01-10T03:03:47.498Z,16.14
2019-01-10T03:04:28.149Z,16.07
2019-01-10T03:05:08.835Z,16.09
2019-01-10T03:05:49.483Z,16.14
2019-01-10T03:06:30.089Z,16.15
2019-01-10T03:07:10.706Z,16.15
2019-01-10T03:07:51.338Z,16.11
2019-01-10T03:08:31.957Z,16.2
2019-01-10T03:09:12.567Z,16.17
2019-01-10T03:09:53.169Z,16.07
2019-01-10T03:10:33.771Z,16.08
2019-01-10T03:11:14.427Z,16.09
2019-01-10T03:11:55.020Z,16.15
2019-01-10T03:12:35.627Z,16.12
2019-01-10T03:13:16.232Z,16.12
2019-01-10T03:13:56.862Z,16.08
2019-01-10T03:14:37.474Z,16.11
2019-01-10T03:15:18.092Z,16.08
2019-01-10T03:15:58.709Z,16.05
2019-01-10T03:16:39.315Z,16.07
2019-01-10T03:17:19.911Z,16.09
2019-01-10T03:18:00.511Z,16.04
2019-01-10T03:18:41.108Z,16.14
2019-01-10T03:19:21.727Z,16.17
2019-01-10T03:20:02.343Z,16.05
2019-01-10T03:20:42.951Z,16.11
2019-01-10T03:21:23.562Z,16.09
2019-01-10T03:22:04.169Z,16.12
2019-01-10T03:22:44.793Z,16.07
2019-01-10T03:23:25.399Z,16.11
2019-01-10T03:24:06.021Z,16.14
2019-01-10T03:24:46.621Z,16.08
2019-01-10T03:25:27.341Z,16.12
2019-01-10T03:26:07.857Z,16.11
2019-01-10T03:26:48.485Z,16.08
2019-01-10T03:27:29.097Z,16.09
2019-01-10T03:28:09.700Z,16.12
2019-01-10T03:28:50.337Z,16.09
2019-01-10T03:29:30.937Z,16.09
2019-01-10T03:30:11.541Z,16.05
2019-01-10T03:30:52.173Z,16.09
2019-01-10T03:31:32.779Z,16.12
2019-01-10T03:32:13.423Z,16.01
2019-01-10T03:32:54.028Z,16.12
2019-01-10T03:33:34.646Z,16.08
2019-01-10T03:34:15.243Z,16.07
2019-01-10T03:34:55.879Z,16.05
2019-01-10T03:35:36.513Z,16.09
2019-01-10T03:36:17.176Z,16.11
2019-01-10T03:36:57.773Z,16.11
2019-01-10T03:37:38.387Z,16.09
2019-01-10T03:38:19.009Z,16.14
2019-01-10T03:38:59.645Z,16.08
2019-01-10T03:39:40.251Z,16.11
2019-01-10T03:40:20.847Z,16.2
2019-01-10T03:41:01.495Z,16.09
2019-01-10T03:41:42.095Z,16.08
2019-01-10T03:42:22.700Z,16.14
2019-01-10T03:43:03.326Z,16.09
2019-01-10T03:43:47.106Z,16.08
2019-01-10T03:44:33.797Z,16.11
2019-01-10T03:45:05.123Z,16.08
2019-01-10T03:45:45.751Z,16.07
2019-01-10T03:46:26.360Z,16.11
2019-01-10T03:47:07.003Z,16.08
2019-01-10T03:47:47.630Z,16.05
2019-01-10T03:48:28.243Z,16.05
2019-01-10T03:49:08.851Z,16.05
2019-01-10T03:49:49.469Z,16.07
2019-01-10T03:50:30.081Z,16.07
2019-01-10T03:51:10.686Z,16.07
2019-01-10T03:51:51.311Z,16.09
2019-01-10T03:52:31.919Z,16.08
2019-01-10T03:53:12.531Z,16.08
2019-01-10T03:53:53.189Z,16.09
2019-01-10T03:54:33.810Z,16.02
2019-01-10T03:55:14.439Z,16.09
2019-01-10T03:55:55.050Z,16.08
2019-01-10T03:56:35.669Z,16.07
2019-01-10T03:57:16.285Z,16.09
2019-01-10T03:57:56.901Z,16.08
2019-01-10T03:58:37.527Z,16.08
2019-01-10T03:59:18.136Z,16.09
2019-01-10T03:59:58.789Z,16.05
2019-01-10T04:00:39.399Z,16.07
2019-01-10T04:01:20.001Z,16.05
2019-01-10T04:02:00.627Z,16.04
2019-01-10T04:02:41.247Z,16.07
2019-01-10T04:03:21.869Z,16.01
2019-01-10T04:04:02.517Z,16.07
2019-01-10T04:04:43.122Z,16.07
2019-01-10T04:05:23.746Z,16.07
2019-01-10T04:06:04.357Z,16.07
2019-01-10T04:06:44.953Z,16.08
2019-01-10T04:07:25.581Z,16.07
2019-01-10T04:08:06.241Z,16.08
2019-01-10T04:08:46.855Z,16.05
2019-01-10T04:09:27.485Z,16.04
2019-01-10T04:10:08.099Z,16.08
2019-01-10T04:10:48.701Z,16.01
2019-01-10T04:11:29.335Z,16.05
2019-01-10T04:12:10.011Z,16.07
2019-01-10T04:12:50.645Z,16.07
2019-01-10T04:13:31.263Z,16.08
2019-01-10T04:14:11.891Z,16
2019-01-10T04:14:52.495Z,16.07
2019-01-10T04:15:33.111Z,16
2019-01-10T04:16:13.729Z,16.08
2019-01-10T04:16:54.357Z,16.07
2019-01-10T04:17:34.963Z,16.05
2019-01-10T04:18:15.571Z,16.14
2019-01-10T04:18:56.183Z,16.09
2019-01-10T04:19:36.779Z,16.11
2019-01-10T04:20:17.387Z,16.05
2019-01-10T04:20:58.011Z,16.02
2019-01-10T04:21:38.653Z,16.01
2019-01-10T04:22:19.277Z,16.09
2019-01-10T04:22:59.902Z,16.09
2019-01-10T04:23:40.517Z,16.05
2019-01-10T04:24:21.119Z,16.04
2019-01-10T04:25:01.794Z,16.07
2019-01-10T04:25:42.986Z,15.97
2019-01-10T04:26:23.001Z,16.07
2019-01-10T04:27:03.623Z,16.04
2019-01-10T04:27:44.233Z,16.05
2019-01-10T04:28:24.848Z,16.02
2019-01-10T04:29:05.463Z,16.08
2019-01-10T04:29:46.097Z,16.04
2019-01-10T04:30:26.698Z,16.07
2019-01-10T04:31:07.347Z,16.02
2019-01-10T04:31:47.982Z,16.07
2019-01-10T04:32:28.649Z,15.94
2019-01-10T04:33:09.270Z,16
2019-01-10T04:33:49.871Z,16.02
2019-01-10T04:34:30.492Z,16.04
2019-01-10T04:35:11.090Z,16.01
2019-01-10T04:35:51.809Z,16.07
2019-01-10T04:36:32.417Z,16.02
2019-01-10T04:37:13.020Z,16.05
2019-01-10T04:37:53.636Z,16.11
2019-01-10T04:38:34.232Z,16.04
2019-01-10T04:39:14.840Z,16.04
2019-01-10T04:39:55.441Z,16.07
2019-01-10T04:40:36.059Z,16.04
2019-01-10T04:41:16.653Z,16.07
2019-01-10T04:41:57.263Z,16.04
2019-01-10T04:42:37.870Z,15.96
2019-01-10T04:43:18.537Z,16.11
2019-01-10T04:44:06.883Z,16.05
2019-01-10T04:44:39.745Z,16.01
2019-01-10T04:45:20.372Z,16.05
2019-01-10T04:46:00.985Z,16.04
2019-01-10T04:46:41.583Z,16.08
2019-01-10T04:47:22.183Z,16.07
2019-01-10T04:48:02.822Z,16.02
2019-01-10T04:48:43.443Z,16.04
2019-01-10T04:49:24.057Z,15.96
2019-01-10T04:50:04.732Z,16.04
2019-01-10T04:50:45.360Z,16.04
2019-01-10T04:51:25.951Z,16
2019-01-10T04:52:06.557Z,16.05
2019-01-10T04:52:47.172Z,16.02
2019-01-10T04:53:27.779Z,15.96
2019-01-10T04:54:08.462Z,16.01
2019-01-10T04:54:49.091Z,16.02
2019-01-10T04:55:29.693Z,16
2019-01-10T04:56:10.289Z,16.07
2019-01-10T04:56:50.917Z,15.92
2019-01-10T04:57:31.517Z,15.94
2019-01-10T04:58:12.129Z,15.94
2019-01-10T04:58:52.739Z,16.01
2019-01-10T04:59:33.353Z,16.04
2019-01-10T05:00:13.998Z,15.97
2019-01-10T05:00:54.618Z,16.01
2019-01-10T05:01:35.211Z,16
2019-01-10T05:02:18.383Z,16.01
2019-01-10T05:02:56.453Z,16.01
2019-01-10T05:03:37.049Z,16.01
2019-01-10T05:04:17.659Z,15.96
2019-01-10T05:04:58.262Z,16
2019-01-10T05:05:39.082Z,16.07
2019-01-10T05:06:19.691Z,16.08
2019-01-10T05:07:00.305Z,16.11
2019-01-10T05:07:40.915Z,16.04
2019-01-10T05:08:21.517Z,15.94
2019-01-10T05:09:02.131Z,15.97
2019-01-10T05:09:42.745Z,16.02
2019-01-10T05:10:23.370Z,16
2019-01-10T05:11:04.012Z,16.01
2019-01-10T05:11:44.625Z,16.02
2019-01-10T05:12:25.267Z,15.94
2019-01-10T05:13:05.897Z,15.97
2019-01-10T05:13:46.517Z,15.93
2019-01-10T05:14:27.141Z,16.02
2019-01-10T05:15:07.735Z,15.93
2019-01-10T05:15:48.412Z,15.93
2019-01-10T05:16:29.095Z,15.96
2019-01-10T05:17:09.721Z,16.01
2019-01-10T05:17:50.337Z,16.01
2019-01-10T05:18:30.998Z,16.01
2019-01-10T05:19:11.613Z,16.01
2019-01-10T05:19:52.216Z,15.97
2019-01-10T05:20:32.829Z,15.94
2019-01-10T05:21:13.522Z,15.97
2019-01-10T05:21:54.045Z,15.92
2019-01-10T05:22:34.667Z,15.96
2019-01-10T05:23:15.283Z,15.97
2019-01-10T05:23:55.915Z,15.93
2019-01-10T05:24:36.505Z,16.02
2019-01-10T05:25:17.139Z,15.97
2019-01-10T05:25:57.742Z,15.97
2019-01-10T05:26:38.362Z,16.01
2019-01-10T05:27:18.962Z,15.92
2019-01-10T05:27:59.582Z,15.97
2019-01-10T05:28:40.255Z,15.97
2019-01-10T05:29:20.862Z,15.97
2019-01-10T05:30:01.495Z,15.97
2019-01-10T05:30:42.171Z,16.04
2019-01-10T05:31:22.903Z,16.05
2019-01-10T05:32:03.534Z,16.01
2019-01-10T05:32:44.147Z,15.93
2019-01-10T05:33:24.785Z,15.97
2019-01-10T05:34:05.397Z,15.93
2019-01-10T05:34:46.013Z,15.93
2019-01-10T05:35:26.621Z,15.97
2019-01-10T05:36:07.239Z,16.02
2019-01-10T05:36:47.863Z,15.96
2019-01-10T05:37:28.493Z,15.96
2019-01-10T05:38:09.099Z,16.01
2019-01-10T05:38:49.757Z,16.02
2019-01-10T05:39:30.345Z,15.94
2019-01-10T05:40:10.959Z,15.96
2019-01-10T05:40:51.609Z,15.93
2019-01-10T05:41:32.265Z,16.01
2019-01-10T05:42:13.583Z,15.92
2019-01-10T05:42:53.478Z,15.9
2019-01-10T05:43:34.121Z,15.97
2019-01-10T05:44:14.713Z,15.94
2019-01-10T05:44:55.335Z,15.93
2019-01-10T05:45:36.003Z,15.9
2019-01-10T05:46:16.629Z,15.93
2019-01-10T05:46:57.266Z,15.9
2019-01-10T05:47:37.909Z,15.97
2019-01-10T05:48:18.526Z,16
2019-01-10T05:48:59.141Z,16
2019-01-10T05:49:39.798Z,15.93
2019-01-10T05:50:20.396Z,15.94
2019-01-10T05:51:01.008Z,16.01
2019-01-10T05:51:41.639Z,15.86
2019-01-10T05:52:22.238Z,15.97
2019-01-10T05:53:02.871Z,15.96
2019-01-10T05:53:43.486Z,15.87
2019-01-10T05:54:24.115Z,15.92
2019-01-10T05:55:04.748Z,15.92
2019-01-10T05:55:45.361Z,15.89
2019-01-10T05:56:25.973Z,15.96
2019-01-10T05:57:06.617Z,15.97
2019-01-10T05:57:47.210Z,15.92
2019-01-10T05:58:27.820Z,15.93
2019-01-10T05:59:08.456Z,15.96
2019-01-10T05:59:49.085Z,15.93
2019-01-10T06:01:44.212Z,15.97
2019-01-10T06:02:24.831Z,15.96
2019-01-10T06:03:05.456Z,15.93
2019-01-10T06:03:53.102Z,15.93
2019-01-10T06:04:26.748Z,16
2019-01-10T06:05:07.353Z,15.86
2019-01-10T06:05:47.944Z,15.93
2019-01-10T06:06:28.571Z,15.92
2019-01-10T06:07:09.209Z,15.92
2019-01-10T06:07:49.801Z,15.97
2019-01-10T06:08:30.409Z,15.92
2019-01-10T06:09:11.013Z,15.92
2019-01-10T06:09:51.642Z,15.87
2019-01-10T06:10:32.255Z,15.93
2019-01-10T06:11:12.901Z,15.93
2019-01-10T06:11:53.495Z,15.9
2019-01-10T06:12:34.152Z,15.93
2019-01-10T06:13:14.771Z,15.92
2019-01-10T06:13:55.385Z,15.93
2019-01-10T06:14:36.055Z,15.89
2019-01-10T06:15:16.641Z,16
2019-01-10T06:15:57.171Z,15.89
2019-01-10T06:16:37.781Z,15.94
2019-01-10T06:17:18.393Z,15.87
2019-01-10T06:17:59.030Z,15.87
2019-01-10T06:18:39.619Z,15.92
2019-01-10T06:19:26.624Z,15.87
2019-01-10T06:20:00.887Z,15.97
2019-01-10T06:20:41.489Z,15.87
2019-01-10T06:21:22.093Z,15.86
2019-01-10T06:22:02.683Z,16
2019-01-10T06:22:43.294Z,16
2019-01-10T06:23:23.909Z,15.97
2019-01-10T06:24:04.502Z,15.94
2019-01-10T06:24:45.159Z,15.9
2019-01-10T06:25:25.820Z,15.89
2019-01-10T06:26:06.423Z,15.97
2019-01-10T06:26:47.053Z,15.92
2019-01-10T06:27:27.666Z,15.89
2019-01-10T06:28:08.316Z,15.89
2019-01-10T06:28:49.021Z,15.87
2019-01-10T06:29:29.557Z,15.92
2019-01-10T06:30:10.185Z,15.89
2019-01-10T06:30:50.809Z,15.87
2019-01-10T06:31:31.415Z,15.97
2019-01-10T06:32:12.025Z,15.92
2019-01-10T06:32:52.637Z,15.86
2019-01-10T06:33:33.252Z,15.89
2019-01-10T06:34:13.894Z,15.9
2019-01-10T06:34:54.511Z,15.94
2019-01-10T06:35:35.125Z,15.84
2019-01-10T06:36:15.741Z,15.89
2019-01-10T06:36:56.347Z,15.89
2019-01-10T06:37:36.947Z,15.89
2019-01-10T06:38:17.550Z,15.87
2019-01-10T06:38:58.197Z,15.87
2019-01-10T06:39:38.811Z,15.86
2019-01-10T06:40:19.495Z,15.86
2019-01-10T06:41:00.118Z,15.89
2019-01-10T06:41:40.713Z,15.89
2019-01-10T06:42:21.317Z,15.87
2019-01-10T06:43:01.931Z,15.89
2019-01-10T06:43:42.538Z,15.94
2019-01-10T06:44:23.132Z,15.92
2019-01-10T06:45:03.757Z,15.9
2019-01-10T06:45:44.433Z,15.83
2019-01-10T06:46:25.033Z,15.87
2019-01-10T06:47:05.662Z,15.87
2019-01-10T06:47:46.273Z,15.86
2019-01-10T06:48:26.892Z,15.83
2019-01-10T06:49:07.513Z,15.83
2019-01-10T06:49:48.151Z,15.9
2019-01-10T06:50:28.785Z,15.92
2019-01-10T06:51:09.386Z,15.86
2019-01-10T06:51:50.041Z,15.86
2019-01-10T06:52:30.642Z,15.9
2019-01-10T06:53:11.283Z,15.87
2019-01-10T06:53:51.885Z,15.94
2019-01-10T06:54:32.491Z,15.9
2019-01-10T06:55:13.112Z,15.9
2019-01-10T06:55:53.726Z,15.92
2019-01-10T06:56:34.358Z,15.9
2019-01-10T06:57:14.962Z,15.86
2019-01-10T06:57:55.567Z,15.86
2019-01-10T06:58:36.183Z,15.89
2019-01-10T06:59:16.795Z,15.89
2019-01-10T06:59:57.420Z,15.87
2019-01-10T07:00:38.041Z,15.87
2019-01-10T07:01:18.649Z,15.86
2019-01-10T07:01:59.287Z,15.86
2019-01-10T07:02:39.889Z,15.89
2019-01-10T07:03:20.498Z,15.86
2019-01-10T07:04:01.131Z,15.84
2019-01-10T07:04:41.737Z,15.84
2019-01-10T07:05:22.339Z,15.83
2019-01-10T07:06:02.982Z,15.83
2019-01-10T07:06:43.578Z,15.83
2019-01-10T07:07:24.213Z,15.84
2019-01-10T07:08:04.832Z,15.76
2019-01-10T07:08:45.422Z,15.86
2019-01-10T07:09:26.023Z,15.84
2019-01-10T07:10:06.627Z,15.86
2019-01-10T07:10:47.255Z,15.82
2019-01-10T07:11:27.893Z,15.87
2019-01-10T07:12:08.533Z,15.87
2019-01-10T07:12:49.137Z,15.87
2019-01-10T07:13:29.753Z,15.89
2019-01-10T07:14:10.379Z,15.84
2019-01-10T07:14:53.604Z,15.87
2019-01-10T07:15:31.589Z,15.84
2019-01-10T07:16:12.187Z,15.82
2019-01-10T07:16:53.628Z,15.86
2019-01-10T07:17:33.447Z,15.86
2019-01-10T07:18:14.066Z,15.8
2019-01-10T07:18:54.691Z,15.86
2019-01-10T07:19:35.367Z,15.84
2019-01-10T07:20:15.983Z,15.86
2019-01-10T07:20:56.587Z,15.87
2019-01-10T07:21:37.207Z,15.86
2019-01-10T07:22:17.811Z,15.86
2019-01-10T07:22:58.409Z,15.87
2019-01-10T07:23:39.058Z,15.93
2019-01-10T07:24:21.148Z,15.87
2019-01-10T07:25:00.294Z,15.87
2019-01-10T07:25:40.919Z,15.86
2019-01-10T07:26:21.510Z,15.86
2019-01-10T07:27:02.117Z,15.84
2019-01-10T07:27:42.732Z,15.9
2019-01-10T07:28:23.364Z,15.86
2019-01-10T07:29:03.963Z,15.87
2019-01-10T07:29:44.598Z,15.84
2019-01-10T07:30:25.206Z,15.96
2019-01-10T07:31:05.813Z,15.87
2019-01-10T07:31:46.418Z,15.89
2019-01-10T07:32:27.019Z,15.86
2019-01-10T07:33:07.634Z,15.86
2019-01-10T07:33:48.257Z,15.89
2019-01-10T07:34:28.946Z,15.86
2019-01-10T07:35:09.582Z,15.87
2019-01-10T07:35:50.201Z,15.87
2019-01-10T07:36:30.831Z,15.9
2019-01-10T07:37:12.778Z,15.82
2019-01-10T07:37:52.356Z,15.87
2019-01-10T07:38:32.920Z,15.83
2019-01-10T07:39:13.587Z,15.9
2019-01-10T07:39:54.244Z,15.87
2019-01-10T07:40:36.485Z,15.86
2019-01-10T07:41:15.576Z,15.9
2019-01-10T07:41:56.116Z,15.89
2019-01-10T07:42:36.734Z,15.89
2019-01-10T07:43:17.373Z,15.9
2019-01-10T07:43:57.972Z,15.87
2019-01-10T07:44:38.587Z,15.84
2019-01-10T07:45:19.207Z,15.9
2019-01-10T07:45:59.832Z,15.92
2019-01-10T07:46:40.465Z,15.84
2019-01-10T07:47:21.180Z,15.86
2019-01-10T07:48:01.818Z,15.89
2019-01-10T07:48:42.426Z,15.89
2019-01-10T07:49:23.047Z,15.94
2019-01-10T07:50:03.647Z,15.89
2019-01-10T07:50:44.263Z,15.9
2019-01-10T07:51:24.899Z,15.87
2019-01-10T07:52:05.491Z,15.9
2019-01-10T07:52:46.163Z,15.89
2019-01-10T07:53:26.765Z,15.9
2019-01-10T07:54:07.386Z,15.87
2019-01-10T07:54:48.014Z,15.89
2019-01-10T07:55:28.626Z,15.86
2019-01-10T07:56:09.276Z,15.86
2019-01-10T07:56:49.905Z,15.86
2019-01-10T07:57:30.571Z,15.84
2019-01-10T07:58:11.174Z,15.93
2019-01-10T07:58:51.824Z,15.87
2019-01-10T07:59:32.453Z,15.92
2019-01-10T08:00:13.066Z,15.89
2019-01-10T08:00:53.967Z,15.92
2019-01-10T08:01:34.303Z,15.9
2019-01-10T08:02:14.897Z,15.89
2019-01-10T08:02:55.537Z,15.9
2019-01-10T08:03:36.150Z,15.92
2019-01-10T08:04:16.754Z,15.87
2019-01-10T08:04:57.411Z,15.89
2019-01-10T08:05:38.003Z,15.86
2019-01-10T08:06:18.603Z,15.86
2019-01-10T08:06:59.216Z,15.87
2019-01-10T08:07:39.856Z,15.84
2019-01-10T08:08:20.450Z,15.89
2019-01-10T08:09:01.060Z,15.8
2019-01-10T08:09:41.813Z,15.87
2019-01-10T08:10:22.451Z,15.94
2019-01-10T08:11:03.062Z,15.84
2019-01-10T08:11:43.688Z,15.87
2019-01-10T08:12:24.291Z,15.86
2019-01-10T08:13:04.902Z,15.87
2019-01-10T08:13:45.586Z,15.92
2019-01-10T08:14:26.314Z,15.9
2019-01-10T08:15:11.707Z,15.9
2019-01-10T08:15:47.730Z,15.9
2019-01-10T08:16:28.377Z,15.97
2019-01-10T08:17:15.846Z,15.86
2019-01-10T08:17:49.634Z,15.92
2019-01-10T08:18:30.280Z,15.87
2019-01-10T08:19:10.934Z,15.89
2019-01-10T08:19:51.575Z,15.87
2019-01-10T08:20:32.179Z,15.89
2019-01-10T08:21:12.951Z,15.89
2019-01-10T08:21:53.551Z,15.87
2019-01-10T08:22:34.210Z,15.87
2019-01-10T08:23:14.799Z,15.89
2019-01-10T08:23:55.414Z,15.87
2019-01-10T08:24:36.036Z,15.87
2019-01-10T08:25:16.699Z,15.86
2019-01-10T08:25:57.304Z,15.86
2019-01-10T08:26:37.895Z,15.87
2019-01-10T08:27:18.499Z,15.87
2019-01-10T08:27:59.124Z,15.87
2019-01-10T08:28:39.768Z,15.87
2019-01-10T08:29:20.368Z,15.87
2019-01-10T08:30:00.982Z,15.84
2019-01-10T08:30:41.620Z,15.8
2019-01-10T08:31:22.209Z,15.93
2019-01-10T08:32:04.086Z,15.86
2019-01-10T08:32:43.474Z,15.87
2019-01-10T08:33:24.134Z,15.89
2019-01-10T08:34:04.794Z,15.89
2019-01-10T08:34:45.425Z,15.9
2019-01-10T08:35:26.014Z,15.9
2019-01-10T08:36:06.633Z,15.92
2019-01-10T08:36:47.229Z,15.84
2019-01-10T08:37:27.888Z,15.87
2019-01-10T08:38:08.493Z,15.86
2019-01-10T08:38:49.270Z,15.87
2019-01-10T08:39:29.904Z,15.87
2019-01-10T08:40:10.538Z,15.9
2019-01-10T08:40:51.163Z,15.87
2019-01-10T08:41:31.834Z,15.84
2019-01-10T08:42:12.522Z,15.86
2019-01-10T08:42:53.318Z,15.9
2019-01-10T08:43:33.928Z,15.84
2019-01-10T08:44:14.531Z,15.89
2019-01-10T08:44:55.120Z,15.87
2019-01-10T08:45:35.733Z,16.01
2019-01-10T08:46:16.364Z,15.87
2019-01-10T08:46:56.975Z,15.87